Time;durP1;ratioP1;P1;durP2;ratioP2;P2;SDS_P1;SDS_P2;PMS_P1;PMS_P2;Temp;Humidity;BMP_temperature;BMP_pressure;BME280_temperature;BME280_humidity;BME280_pressure;Samples;Min_cycle;Max_cycle;Signal;HPM_P1;HPM_P2
2023/06/21 00:02:20;;;;;;;11.50;9.67;;;;;;;;;;5052201;28;20410;-47
2023/06/21 00:04:46;;;;;;;12.67;10.50;;;;;;;;;;5047746;28;20424;-47
2023/06/21 00:07:12;;;;;;;9.87;8.87;;;;;;;;;;5066449;28;20490;-48
2023/06/21 00:09:39;;;;;;;10.37;9.20;;;;;;;;;;5059906;28;20416;-47
2023/06/21 00:12:05;;;;;;;11.87;10.23;;;;;;;;;;5050462;28;20452;-48
2023/06/21 00:14:31;;;;;;;10.07;9.20;;;;;;;;;;5048243;28;20808;-48
2023/06/21 00:16:57;;;;;;;10.10;9.20;;;;;;;;;;5057215;28;20503;-50
2023/06/21 00:19:23;;;;;;;9.93;8.93;;;;;;;;;;5055557;28;20531;-49
2023/06/21 00:21:49;;;;;;;10.20;9.30;;;;;;;;;;5047169;28;20441;-48
2023/06/21 00:24:15;;;;;;;15.40;9.20;;;;;;;;;;5053872;28;20497;-49
2023/06/21 00:26:41;;;;;;;9.87;8.87;;;;;;;;;;5049816;28;20402;-47
2023/06/21 00:29:07;;;;;;;9.77;8.77;;;;;;;;;;5052199;28;20416;-47
2023/06/21 00:31:33;;;;;;;9.57;8.57;;;;;;;;;;5045195;28;20486;-49
2023/06/21 00:33:59;;;;;;;9.60;8.63;;;;;;;;;;5050765;28;20898;-48
2023/06/21 00:36:25;;;;;;;11.10;7.83;;;;;;;;;;5058203;28;20461;-47
2023/06/21 00:38:51;;;;;;;10.60;8.50;;;;;;;;;;5059824;28;20436;-47
2023/06/21 00:41:17;;;;;;;12.27;8.80;;;;;;;;;;5054077;28;20961;-51
2023/06/21 00:43:43;;;;;;;8.37;7.50;;;;;;;;;;5056635;28;20818;-50
2023/06/21 00:46:09;;;;;;;8.27;7.57;;;;;;;;;;5054309;28;20410;-49
2023/06/21 00:48:35;;;;;;;7.97;7.37;;;;;;;;;;5052540;28;20423;-47
2023/06/21 00:51:01;;;;;;;9.77;8.57;;;;;;;;;;5045336;28;20454;-47
2023/06/21 00:53:28;;;;;;;9.73;8.23;;;;;;;;;;5065501;28;20415;-47
2023/06/21 00:55:55;;;;;;;10.50;7.90;;;;;;;;;;5059077;28;20497;-50
2023/06/21 00:58:21;;;;;;;8.90;8.10;;;;;;;;;;5052392;28;20528;-47
2023/06/21 01:00:49;;;;;;;13.90;8.87;;;;;;;;;;5053669;28;21048;-49
2023/06/21 01:03:16;;;;;;;11.17;7.40;;;;;;;;;;5053476;28;20494;-49
2023/06/21 01:05:43;;;;;;;10.13;8.00;;;;;;;;;;5052135;28;20415;-49
2023/06/21 01:08:11;;;;;;;8.23;7.43;;;;;;;;;;5056615;28;20465;-50
2023/06/21 01:10:37;;;;;;;7.87;7.07;;;;;;;;;;5063204;28;20438;-50
2023/06/21 01:13:19;;;;;;;9.07;7.67;;;;;;;;;;5059347;28;20851;-50
2023/06/21 01:15:51;;;;;;;8.40;7.50;;;;;;;;;;5041555;28;20444;-50
2023/06/21 01:18:18;;;;;;;8.30;7.37;;;;;;;;;;5054976;28;20391;-50
2023/06/21 01:20:49;;;;;;;9.10;8.23;;;;;;;;;;5056997;28;20481;-49
2023/06/21 01:23:23;;;;;;;7.67;6.97;;;;;;;;;;5053800;28;20476;-50
2023/06/21 01:25:58;;;;;;;7.70;7.00;;;;;;;;;;5055277;28;20405;-50
2023/06/21 01:28:39;;;;;;;7.50;6.70;;;;;;;;;;5059340;28;20407;-50
2023/06/21 01:31:06;;;;;;;7.57;6.90;;;;;;;;;;5055614;28;20445;-49
2023/06/21 01:33:32;;;;;;;7.07;6.37;;;;;;;;;;5047427;28;20453;-51
2023/06/21 01:36:02;;;;;;;7.53;6.83;;;;;;;;;;5059256;28;20578;-51
2023/06/21 01:38:28;;;;;;;7.20;6.53;;;;;;;;;;5063257;28;20411;-49
2023/06/21 01:40:54;;;;;;;7.20;6.60;;;;;;;;;;5056152;28;20464;-50
2023/06/21 01:43:20;;;;;;;8.43;6.50;;;;;;;;;;5050151;28;20499;-49
2023/06/21 01:45:47;;;;;;;5.97;5.40;;;;;;;;;;5055567;28;20428;-49
2023/06/21 01:48:13;;;;;;;7.50;6.80;;;;;;;;;;5052389;28;20407;-50
2023/06/21 01:50:40;;;;;;;6.73;6.03;;;;;;;;;;5048983;28;20430;-50
2023/06/21 01:53:06;;;;;;;6.40;5.80;;;;;;;;;;5049903;28;20509;-50
2023/06/21 01:55:32;;;;;;;7.37;6.63;;;;;;;;;;5045919;28;20422;-50
2023/06/21 01:57:59;;;;;;;8.50;6.60;;;;;;;;;;5060933;28;20416;-49
2023/06/21 02:00:26;;;;;;;10.30;7.07;;;;;;;;;;5047703;28;20878;-49
2023/06/21 02:02:56;;;;;;;7.40;6.20;;;;;;;;;;5045720;28;20482;-47
2023/06/21 02:05:22;;;;;;;7.27;6.67;;;;;;;;;;5063818;28;20396;-47
2023/06/21 02:07:49;;;;;;;6.70;6.20;;;;;;;;;;5063091;28;20409;-48
2023/06/21 02:10:18;;;;;;;6.23;5.73;;;;;;;;;;5051373;28;20428;-47
2023/06/21 02:12:47;;;;;;;6.80;6.10;;;;;;;;;;5038447;28;20426;-47
2023/06/21 02:15:13;;;;;;;9.53;5.80;;;;;;;;;;5057676;28;20420;-50
2023/06/21 02:17:38;;;;;;;9.10;5.13;;;;;;;;;;5039353;28;20419;-46
2023/06/21 02:20:09;;;;;;;7.60;5.83;;;;;;;;;;5043106;28;20519;-48
2023/06/21 02:22:35;;;;;;;8.87;5.83;;;;;;;;;;5055302;28;20437;-47
2023/06/21 02:25:01;;;;;;;9.00;6.90;;;;;;;;;;5051887;28;20423;-47
2023/06/21 02:27:27;;;;;;;5.63;5.07;;;;;;;;;;5050953;28;20436;-49
2023/06/21 02:29:53;;;;;;;6.20;5.53;;;;;;;;;;5049101;28;20461;-48
2023/06/21 02:32:19;;;;;;;6.13;5.53;;;;;;;;;;5054419;28;20427;-49
2023/06/21 02:34:45;;;;;;;6.50;5.60;;;;;;;;;;5060291;28;20414;-48
2023/06/21 02:37:11;;;;;;;8.50;6.70;;;;;;;;;;5060458;28;20480;-47
2023/06/21 02:39:37;;;;;;;6.63;5.93;;;;;;;;;;5039707;28;20461;-51
2023/06/21 02:42:04;;;;;;;7.07;5.10;;;;;;;;;;5039648;28;20435;-47
2023/06/21 02:44:30;;;;;;;6.93;6.23;;;;;;;;;;5049893;28;20437;-47
2023/06/21 02:46:56;;;;;;;6.97;6.27;;;;;;;;;;5033885;28;20406;-48
2023/06/21 02:49:22;;;;;;;8.80;6.90;;;;;;;;;;5054503;28;20377;-52
2023/06/21 02:51:51;;;;;;;6.60;6.00;;;;;;;;;;5046274;28;20976;-49
2023/06/21 02:54:17;;;;;;;7.30;6.53;;;;;;;;;;5042831;28;20808;-47
2023/06/21 02:56:43;;;;;;;7.47;5.60;;;;;;;;;;5053687;28;20796;-47
2023/06/21 02:59:10;;;;;;;7.73;6.93;;;;;;;;;;5063089;28;20411;-47
2023/06/21 03:01:36;;;;;;;6.20;5.60;;;;;;;;;;5048955;28;20427;-47
2023/06/21 03:04:02;;;;;;;5.47;4.97;;;;;;;;;;5046393;28;20778;-47
2023/06/21 03:06:29;;;;;;;6.43;5.83;;;;;;;;;;5053441;28;20438;-47
2023/06/21 03:08:56;;;;;;;7.00;6.30;;;;;;;;;;5053865;28;20411;-47
2023/06/21 03:11:22;;;;;;;6.43;5.83;;;;;;;;;;5056846;28;20963;-49
2023/06/21 03:13:48;;;;;;;7.20;5.90;;;;;;;;;;5041823;28;20860;-48
2023/06/21 03:16:14;;;;;;;7.30;6.10;;;;;;;;;;5040500;28;20516;-51
2023/06/21 03:18:40;;;;;;;6.67;6.10;;;;;;;;;;5055859;28;20434;-51
2023/06/21 03:21:06;;;;;;;6.97;5.70;;;;;;;;;;5049481;28;20557;-49
2023/06/21 03:23:32;;;;;;;6.20;5.70;;;;;;;;;;5052243;28;20439;-50
2023/06/21 03:25:58;;;;;;;7.20;6.50;;;;;;;;;;5053302;28;20400;-50
2023/06/21 03:28:24;;;;;;;6.40;5.80;;;;;;;;;;5049726;28;20463;-50
2023/06/21 03:30:50;;;;;;;6.17;5.57;;;;;;;;;;5047586;28;20995;-50
2023/06/21 03:33:16;;;;;;;6.73;5.93;;;;;;;;;;5045924;28;20415;-51
2023/06/21 03:35:42;;;;;;;7.27;6.20;;;;;;;;;;5055775;28;20448;-48
2023/06/21 03:38:08;;;;;;;8.97;6.03;;;;;;;;;;5058202;28;20407;-51
2023/06/21 03:40:34;;;;;;;6.70;6.10;;;;;;;;;;5065270;28;20541;-49
2023/06/21 03:43:00;;;;;;;8.07;6.00;;;;;;;;;;5057935;28;20416;-49
2023/06/21 03:45:26;;;;;;;10.20;7.00;;;;;;;;;;5054022;28;20851;-50
2023/06/21 03:47:52;;;;;;;8.37;7.00;;;;;;;;;;5059976;28;20737;-50
2023/06/21 03:50:18;;;;;;;10.13;6.93;;;;;;;;;;5061944;28;20444;-50
2023/06/21 03:52:44;;;;;;;8.07;6.10;;;;;;;;;;5052998;28;20403;-50
2023/06/21 03:55:10;;;;;;;6.77;6.07;;;;;;;;;;5042922;28;20828;-50
2023/06/21 03:57:38;;;;;;;9.43;7.27;;;;;;;;;;5053374;28;20403;-50
2023/06/21 04:00:06;;;;;;;9.80;6.77;;;;;;;;;;5053494;28;20460;-47
2023/06/21 04:02:33;;;;;;;9.07;7.00;;;;;;;;;;5060049;28;20474;-47
2023/06/21 04:04:59;;;;;;;7.83;6.53;;;;;;;;;;5055635;28;20403;-48
2023/06/21 04:07:25;;;;;;;9.87;7.27;;;;;;;;;;5048473;28;20413;-48
2023/06/21 04:09:51;;;;;;;10.27;6.77;;;;;;;;;;5062890;28;20413;-49
2023/06/21 04:12:17;;;;;;;7.00;6.30;;;;;;;;;;5056985;28;20431;-48
2023/06/21 04:14:43;;;;;;;8.40;7.60;;;;;;;;;;5055713;28;20426;-48
2023/06/21 04:17:09;;;;;;;7.60;6.60;;;;;;;;;;5053426;28;20411;-49
2023/06/21 04:19:35;;;;;;;8.50;6.67;;;;;;;;;;5055204;28;20566;-50
2023/06/21 04:22:01;;;;;;;7.60;6.40;;;;;;;;;;5055739;28;20633;-48
2023/06/21 04:24:27;;;;;;;7.53;6.83;;;;;;;;;;5051500;28;20502;-49
2023/06/21 04:26:55;;;;;;;10.17;6.80;;;;;;;;;;5047509;28;20514;-51
2023/06/21 04:29:21;;;;;;;10.63;6.20;;;;;;;;;;5044601;28;20397;-47
2023/06/21 04:31:47;;;;;;;7.57;6.87;;;;;;;;;;5052935;28;20434;-47
2023/06/21 04:34:13;;;;;;;12.60;7.60;;;;;;;;;;5057572;28;20399;-48
2023/06/21 04:36:39;;;;;;;8.67;6.57;;;;;;;;;;5057475;28;20415;-49
2023/06/21 04:39:05;;;;;;;12.83;7.40;;;;;;;;;;5049026;28;20810;-49
2023/06/21 04:41:31;;;;;;;8.47;7.60;;;;;;;;;;5057794;28;20423;-48
2023/06/21 04:43:57;;;;;;;11.13;7.20;;;;;;;;;;5054042;28;20388;-50
2023/06/21 04:46:27;;;;;;;7.97;6.67;;;;;;;;;;5061433;28;20409;-50
2023/06/21 04:48:53;;;;;;;7.47;6.67;;;;;;;;;;5054892;28;20450;-48
2023/06/21 04:51:19;;;;;;;8.10;7.30;;;;;;;;;;5040643;28;20472;-50
2023/06/21 04:53:45;;;;;;;8.30;7.50;;;;;;;;;;5050090;28;20413;-50
2023/06/21 04:56:12;;;;;;;8.90;7.60;;;;;;;;;;5053730;28;20483;-49
2023/06/21 04:58:39;;;;;;;9.47;8.03;;;;;;;;;;5050531;28;20478;-50
2023/06/21 05:01:06;;;;;;;9.73;7.40;;;;;;;;;;5058494;28;20832;-48
2023/06/21 05:03:32;;;;;;;10.50;7.90;;;;;;;;;;5046066;28;20420;-48
2023/06/21 05:05:59;;;;;;;8.07;7.10;;;;;;;;;;5055654;28;20956;-50
2023/06/21 05:08:25;;;;;;;10.23;7.70;;;;;;;;;;5045246;28;20428;-48
2023/06/21 05:10:51;;;;;;;9.00;8.10;;;;;;;;;;5061762;28;20521;-50
2023/06/21 05:13:17;;;;;;;10.23;7.40;;;;;;;;;;5051133;28;20430;-49
2023/06/21 05:15:43;;;;;;;8.80;8.00;;;;;;;;;;5053438;28;20460;-50
2023/06/21 05:18:09;;;;;;;8.90;8.10;;;;;;;;;;5061353;28;20407;-51
2023/06/21 05:20:35;;;;;;;11.10;8.23;;;;;;;;;;5058424;28;20891;-50
2023/06/21 05:23:01;;;;;;;12.80;7.93;;;;;;;;;;5049081;28;20911;-50
2023/06/21 05:25:27;;;;;;;14.13;8.70;;;;;;;;;;5043936;28;20417;-51
2023/06/21 05:27:53;;;;;;;9.17;8.20;;;;;;;;;;5050625;28;20937;-51
2023/06/21 05:30:19;;;;;;;18.87;7.23;;;;;;;;;;5056384;28;20403;-49
2023/06/21 05:32:45;;;;;;;11.20;7.73;;;;;;;;;;5052500;28;20459;-50
2023/06/21 05:35:11;;;;;;;7.77;7.07;;;;;;;;;;5058928;28;20407;-48
2023/06/21 05:37:37;;;;;;;8.77;7.80;;;;;;;;;;5056296;28;20487;-49
2023/06/21 05:40:07;;;;;;;8.77;7.87;;;;;;;;;;5054738;28;20491;-50
2023/06/21 05:42:33;;;;;;;14.83;9.47;;;;;;;;;;5060195;28;20421;-50
2023/06/21 05:44:59;;;;;;;9.87;8.87;;;;;;;;;;5041953;28;20421;-50
2023/06/21 05:47:25;;;;;;;13.07;9.03;;;;;;;;;;5065226;28;20423;-48
2023/06/21 05:49:51;;;;;;;13.17;8.53;;;;;;;;;;5057611;28;20415;-49
2023/06/21 05:52:17;;;;;;;11.13;7.60;;;;;;;;;;5052147;28;20925;-51
2023/06/21 05:54:44;;;;;;;8.70;7.80;;;;;;;;;;5059528;28;20405;-51
2023/06/21 05:57:11;;;;;;;8.70;7.63;;;;;;;;;;5052522;28;20587;-50
2023/06/21 05:59:37;;;;;;;8.93;8.13;;;;;;;;;;5044091;28;20465;-51
2023/06/21 06:02:03;;;;;;;9.53;8.33;;;;;;;;;;5053815;28;20523;-52
2023/06/21 06:04:28;;;;;;;9.43;8.47;;;;;;;;;;5063818;28;20410;-52
2023/06/21 06:06:54;;;;;;;10.20;9.20;;;;;;;;;;5051268;28;20409;-51
2023/06/21 06:09:20;;;;;;;9.70;8.53;;;;;;;;;;5056811;28;20412;-50
2023/06/21 06:11:46;;;;;;;9.30;8.33;;;;;;;;;;5051948;28;20427;-51
2023/06/21 06:14:12;;;;;;;10.63;9.63;;;;;;;;;;5052283;28;20419;-51
2023/06/21 06:16:39;;;;;;;8.80;8.00;;;;;;;;;;5055965;28;20408;-52
2023/06/21 06:19:05;;;;;;;13.00;9.23;;;;;;;;;;5055925;28;20451;-52
2023/06/21 06:21:31;;;;;;;14.07;8.70;;;;;;;;;;5061321;28;20454;-49
2023/06/21 06:23:57;;;;;;;12.60;8.00;;;;;;;;;;5055616;28;20413;-50
2023/06/21 06:26:23;;;;;;;9.97;9.03;;;;;;;;;;5048410;28;20448;-51
2023/06/21 06:28:50;;;;;;;9.63;8.63;;;;;;;;;;5056028;28;20430;-51
2023/06/21 06:31:18;;;;;;;9.37;7.60;;;;;;;;;;5053011;28;20519;-51
2023/06/21 06:33:44;;;;;;;11.07;9.73;;;;;;;;;;5055359;28;20755;-51
2023/06/21 06:36:10;;;;;;;9.90;8.90;;;;;;;;;;5059919;28;20400;-51
2023/06/21 06:38:36;;;;;;;9.60;8.70;;;;;;;;;;5043699;28;20454;-51
2023/06/21 06:41:02;;;;;;;11.57;8.73;;;;;;;;;;5048609;28;21005;-52
2023/06/21 06:43:28;;;;;;;9.83;8.93;;;;;;;;;;5064717;28;20845;-51
2023/06/21 06:45:54;;;;;;;10.70;8.90;;;;;;;;;;5057989;28;20404;-52
2023/06/21 06:48:20;;;;;;;10.00;9.00;;;;;;;;;;5051404;28;20424;-52
2023/06/21 06:50:46;;;;;;;12.47;9.50;;;;;;;;;;5051543;28;20443;-51
2023/06/21 06:53:12;;;;;;;10.47;8.60;;;;;;;;;;5050344;28;20414;-51
2023/06/21 06:55:38;;;;;;;9.70;8.70;;;;;;;;;;5044685;28;20483;-52
2023/06/21 06:58:03;;;;;;;13.97;9.40;;;;;;;;;;5056003;28;20452;-51
2023/06/21 07:00:29;;;;;;;10.20;9.20;;;;;;;;;;5062321;28;20467;-51
2023/06/21 07:02:57;;;;;;;11.50;10.40;;;;;;;;;;5055836;28;20419;-51
2023/06/21 07:05:23;;;;;;;9.80;8.70;;;;;;;;;;5048374;28;20436;-52
2023/06/21 07:07:50;;;;;;;12.27;9.70;;;;;;;;;;5057999;28;20416;-52
2023/06/21 07:10:16;;;;;;;11.10;10.00;;;;;;;;;;5051359;28;20432;-52
2023/06/21 07:12:42;;;;;;;10.90;9.30;;;;;;;;;;5055158;28;20480;-52
2023/06/21 07:15:08;;;;;;;11.30;10.10;;;;;;;;;;5054631;28;20789;-52
2023/06/21 07:17:34;;;;;;;10.93;9.80;;;;;;;;;;5060975;28;21045;-52
2023/06/21 07:20:00;;;;;;;12.80;10.63;;;;;;;;;;5055713;28;20546;-52
2023/06/21 07:22:26;;;;;;;10.77;9.87;;;;;;;;;;5047672;28;20433;-53
2023/06/21 07:24:52;;;;;;;15.30;11.07;;;;;;;;;;5043633;28;20496;-52
2023/06/21 07:27:18;;;;;;;14.90;12.27;;;;;;;;;;5049378;28;20403;-52
2023/06/21 07:29:44;;;;;;;13.33;11.20;;;;;;;;;;5047613;28;20638;-52
2023/06/21 07:32:10;;;;;;;13.30;12.00;;;;;;;;;;5050357;28;20929;-53
2023/06/21 07:34:36;;;;;;;13.40;12.00;;;;;;;;;;5042970;28;20460;-52
2023/06/21 07:37:02;;;;;;;11.67;10.17;;;;;;;;;;5047564;28;20930;-53
2023/06/21 07:39:28;;;;;;;10.60;9.60;;;;;;;;;;5055568;28;20552;-53
2023/06/21 07:41:54;;;;;;;12.53;11.33;;;;;;;;;;5057387;28;20515;-53
2023/06/21 07:44:20;;;;;;;11.67;10.47;;;;;;;;;;5051226;28;20803;-52
2023/06/21 07:46:51;;;;;;;11.97;10.80;;;;;;;;;;5053158;28;20397;-53
2023/06/21 07:49:17;;;;;;;12.27;11.00;;;;;;;;;;5054358;28;20460;-52
2023/06/21 07:51:43;;;;;;;12.37;10.90;;;;;;;;;;5055687;28;20431;-52
2023/06/21 07:54:09;;;;;;;13.37;11.80;;;;;;;;;;5054831;28;20424;-52
2023/06/21 07:56:35;;;;;;;10.57;9.50;;;;;;;;;;5042720;28;20419;-53
2023/06/21 07:59:01;;;;;;;11.10;10.10;;;;;;;;;;5050872;28;20460;-53
2023/06/21 08:01:27;;;;;;;12.53;11.23;;;;;;;;;;5050609;28;20525;-53
2023/06/21 08:03:53;;;;;;;10.80;9.70;;;;;;;;;;5051431;28;20905;-53
2023/06/21 08:06:19;;;;;;;10.73;9.53;;;;;;;;;;5054715;28;20752;-53
2023/06/21 08:08:44;;;;;;;10.90;9.77;;;;;;;;;;5046997;28;20410;-52
2023/06/21 08:11:10;;;;;;;11.20;10.10;;;;;;;;;;5052884;28;20517;-53
2023/06/21 08:13:36;;;;;;;10.50;9.40;;;;;;;;;;5049429;28;20438;-53
2023/06/21 08:16:02;;;;;;;10.57;9.57;;;;;;;;;;5053430;28;20575;-52
2023/06/21 08:18:28;;;;;;;11.30;9.73;;;;;;;;;;5053198;28;20873;-53
2023/06/21 08:20:54;;;;;;;9.70;8.90;;;;;;;;;;5053757;28;20625;-53
2023/06/21 08:23:20;;;;;;;9.83;9.03;;;;;;;;;;5051758;28;20432;-53
2023/06/21 08:25:47;;;;;;;10.73;9.47;;;;;;;;;;5054156;28;20413;-52
2023/06/21 08:28:13;;;;;;;10.60;9.67;;;;;;;;;;5053347;28;20966;-51
2023/06/21 08:30:39;;;;;;;10.67;9.77;;;;;;;;;;5035050;28;20436;-52
2023/06/21 08:33:05;;;;;;;11.83;9.00;;;;;;;;;;5052207;28;20780;-53
2023/06/21 08:35:31;;;;;;;9.73;8.83;;;;;;;;;;5052814;28;20651;-52
2023/06/21 08:37:58;;;;;;;9.43;8.63;;;;;;;;;;5053624;28;20413;-52
2023/06/21 08:40:25;;;;;;;10.57;9.47;;;;;;;;;;5053447;28;20841;-54
2023/06/21 08:42:52;;;;;;;10.80;9.90;;;;;;;;;;5054031;28;20408;-52
2023/06/21 08:45:18;;;;;;;11.40;10.30;;;;;;;;;;5053897;28;20393;-52
2023/06/21 08:47:45;;;;;;;10.67;9.37;;;;;;;;;;5053736;28;20412;-52
2023/06/21 08:50:16;;;;;;;9.50;8.70;;;;;;;;;;5052108;28;20456;-52
2023/06/21 08:52:43;;;;;;;10.13;9.13;;;;;;;;;;5053900;28;20421;-52
2023/06/21 08:55:10;;;;;;;9.83;8.93;;;;;;;;;;5053817;28;20552;-53
2023/06/21 08:57:42;;;;;;;10.77;9.00;;;;;;;;;;5053516;28;20500;-53
2023/06/21 09:00:11;;;;;;;11.23;8.77;;;;;;;;;;5053242;28;20464;-52
2023/06/21 09:02:49;;;;;;;10.00;9.10;;;;;;;;;;5053313;28;20932;-51
2023/06/21 09:05:19;;;;;;;10.77;7.53;;;;;;;;;;5053392;28;20495;-52
2023/06/21 09:07:45;;;;;;;8.17;7.47;;;;;;;;;;5053344;28;20409;-52
2023/06/21 09:10:15;;;;;;;7.70;7.00;;;;;;;;;;5053362;28;20430;-53
2023/06/21 09:12:43;;;;;;;6.70;6.00;;;;;;;;;;5053234;28;20554;-53
2023/06/21 09:15:09;;;;;;;8.10;6.80;;;;;;;;;;5053142;28;20414;-52
2023/06/21 09:17:37;;;;;;;9.47;6.83;;;;;;;;;;5053126;28;20425;-53
2023/06/21 09:20:03;;;;;;;8.27;7.47;;;;;;;;;;5051978;28;20464;-53
2023/06/21 09:22:29;;;;;;;11.83;6.57;;;;;;;;;;5055648;28;20692;-53
2023/06/21 09:24:55;;;;;;;8.53;7.67;;;;;;;;;;5054335;28;20489;-53
2023/06/21 09:27:21;;;;;;;7.40;6.80;;;;;;;;;;5053229;28;20410;-53
2023/06/21 09:29:47;;;;;;;9.43;7.57;;;;;;;;;;5056080;28;20414;-53
2023/06/21 09:32:13;;;;;;;9.13;7.10;;;;;;;;;;5057823;28;20416;-53
2023/06/21 09:34:39;;;;;;;8.10;7.30;;;;;;;;;;5049274;28;20415;-53
2023/06/21 09:37:05;;;;;;;10.40;9.13;;;;;;;;;;5044697;28;20980;-53
2023/06/21 09:39:31;;;;;;;9.47;8.57;;;;;;;;;;5053758;28;20926;-53
2023/06/21 09:41:57;;;;;;;7.77;6.97;;;;;;;;;;5053267;28;20433;-53
2023/06/21 09:44:23;;;;;;;8.23;7.50;;;;;;;;;;5052089;28;20771;-53
2023/06/21 09:46:49;;;;;;;7.07;6.43;;;;;;;;;;5049759;28;20401;-53
2023/06/21 09:49:16;;;;;;;14.20;7.50;;;;;;;;;;5055013;28;20414;-53
2023/06/21 09:51:51;;;;;;;9.00;7.50;;;;;;;;;;5056389;28;20469;-53
2023/06/21 09:54:17;;;;;;;11.83;7.10;;;;;;;;;;5061094;28;20404;-53
2023/06/21 09:56:43;;;;;;;6.43;5.97;;;;;;;;;;5051340;28;20415;-52
2023/06/21 09:59:15;;;;;;;8.30;6.20;;;;;;;;;;5048452;28;20417;-53
2023/06/21 10:01:44;;;;;;;9.43;6.20;;;;;;;;;;5040455;28;20442;-53
2023/06/21 10:04:11;;;;;;;6.57;5.97;;;;;;;;;;5051523;28;20398;-53
2023/06/21 10:06:37;;;;;;;8.03;5.80;;;;;;;;;;5055100;28;20398;-53
2023/06/21 10:09:08;;;;;;;7.30;6.60;;;;;;;;;;5050987;28;20404;-52
2023/06/21 10:11:34;;;;;;;9.10;5.97;;;;;;;;;;5044836;28;20481;-53
2023/06/21 10:14:00;;;;;;;7.60;6.00;;;;;;;;;;5050182;28;20746;-53
2023/06/21 10:16:26;;;;;;;8.47;6.70;;;;;;;;;;5064426;28;20485;-53
2023/06/21 10:18:54;;;;;;;8.20;6.53;;;;;;;;;;5057529;28;20412;-51
2023/06/21 10:21:22;;;;;;;7.03;5.80;;;;;;;;;;5048821;28;20468;-52
2023/06/21 10:23:50;;;;;;;6.63;5.63;;;;;;;;;;5051222;28;20412;-51
2023/06/21 10:26:17;;;;;;;6.00;5.47;;;;;;;;;;5051522;28;20535;-52
2023/06/21 10:28:45;;;;;;;7.83;5.50;;;;;;;;;;5048560;28;20893;-51
2023/06/21 10:31:12;;;;;;;7.83;5.37;;;;;;;;;;5054225;28;20553;-53
2023/06/21 10:33:38;;;;;;;7.67;6.00;;;;;;;;;;5060765;28;20412;-52
2023/06/21 10:36:05;;;;;;;6.33;5.70;;;;;;;;;;5045258;28;20441;-53
2023/06/21 10:38:36;;;;;;;8.30;5.37;;;;;;;;;;5053414;28;20432;-51
2023/06/21 10:41:04;;;;;;;7.30;5.40;;;;;;;;;;5053104;28;21191;-54
2023/06/21 10:43:30;;;;;;;6.03;5.43;;;;;;;;;;5051607;28;20508;-53
2023/06/21 10:45:57;;;;;;;5.70;5.30;;;;;;;;;;5051700;28;20397;-54
2023/06/21 10:48:23;;;;;;;5.90;5.40;;;;;;;;;;5051482;28;20493;-53
2023/06/21 10:50:51;;;;;;;7.83;5.73;;;;;;;;;;5050261;28;20437;-52
2023/06/21 10:53:18;;;;;;;8.17;5.70;;;;;;;;;;5051739;28;20419;-54
2023/06/21 10:55:46;;;;;;;6.80;6.10;;;;;;;;;;5051543;28;20405;-51
2023/06/21 10:58:13;;;;;;;7.17;5.30;;;;;;;;;;5051446;28;20834;-52
2023/06/21 11:00:39;;;;;;;6.70;6.10;;;;;;;;;;5051315;28;20464;-51
2023/06/21 11:03:05;;;;;;;7.03;6.33;;;;;;;;;;5051513;28;20424;-52
2023/06/21 11:05:32;;;;;;;5.93;5.40;;;;;;;;;;5051167;28;20410;-52
2023/06/21 11:07:58;;;;;;;6.03;5.53;;;;;;;;;;5051397;28;20397;-51
2023/06/21 11:10:31;;;;;;;6.83;6.17;;;;;;;;;;5051072;28;20973;-52
2023/06/21 11:12:58;;;;;;;6.30;5.70;;;;;;;;;;5051227;28;20456;-52
2023/06/21 11:15:27;;;;;;;6.50;6.00;;;;;;;;;;5051340;28;20487;-51
2023/06/21 11:18:05;;;;;;;10.20;6.07;;;;;;;;;;5051680;28;20436;-51
2023/06/21 11:20:32;;;;;;;6.63;6.13;;;;;;;;;;5050015;28;20464;-52
2023/06/21 11:23:07;;;;;;;7.73;6.40;;;;;;;;;;5051482;28;20417;-51
2023/06/21 11:25:36;;;;;;;6.07;5.57;;;;;;;;;;5051253;28;20499;-51
2023/06/21 11:28:20;;;;;;;7.13;5.80;;;;;;;;;;5051524;28;20401;-51
2023/06/21 11:31:01;;;;;;;7.23;6.10;;;;;;;;;;5050829;28;20495;-53
2023/06/21 11:33:29;;;;;;;6.90;6.27;;;;;;;;;;5051222;28;20459;-52
2023/06/21 11:36:02;;;;;;;10.70;6.37;;;;;;;;;;5051075;28;20417;-51
2023/06/21 11:38:29;;;;;;;7.50;5.87;;;;;;;;;;5056161;28;20408;-52
2023/06/21 11:40:55;;;;;;;5.57;5.17;;;;;;;;;;5051641;28;20547;-51
2023/06/21 11:43:21;;;;;;;6.73;5.97;;;;;;;;;;5040304;28;20476;-53
2023/06/21 11:45:55;;;;;;;6.30;5.77;;;;;;;;;;5048782;28;20880;-51
2023/06/21 11:48:24;;;;;;;5.67;5.10;;;;;;;;;;5055088;28;20408;-52
2023/06/21 11:50:50;;;;;;;15.03;5.70;;;;;;;;;;5058318;28;20455;-51
2023/06/21 11:53:18;;;;;;;7.23;5.30;;;;;;;;;;5045123;28;20415;-51
2023/06/21 11:55:48;;;;;;;5.47;5.07;;;;;;;;;;5058005;28;20412;-52
2023/06/21 11:58:15;;;;;;;11.53;5.50;;;;;;;;;;5055686;28;20413;-52
2023/06/21 12:00:41;;;;;;;5.67;5.20;;;;;;;;;;5062463;28;20637;-51
2023/06/21 12:03:07;;;;;;;7.23;4.97;;;;;;;;;;5060172;28;20400;-51
2023/06/21 12:05:43;;;;;;;5.50;5.10;;;;;;;;;;5050620;28;20440;-51
2023/06/21 12:08:09;;;;;;;4.37;4.07;;;;;;;;;;5042739;28;20406;-51
2023/06/21 12:10:35;;;;;;;4.73;4.33;;;;;;;;;;5053231;28;20525;-51
2023/06/21 12:13:05;;;;;;;7.53;5.03;;;;;;;;;;5053404;28;20428;-51
2023/06/21 12:15:31;;;;;;;5.70;5.17;;;;;;;;;;5051834;28;20503;-51
2023/06/21 12:17:57;;;;;;;6.97;5.40;;;;;;;;;;5054951;28;20448;-51
2023/06/21 12:20:23;;;;;;;6.13;5.60;;;;;;;;;;5045882;28;20508;-52
2023/06/21 12:22:49;;;;;;;5.30;4.90;;;;;;;;;;5057333;28;20426;-51
2023/06/21 12:25:15;;;;;;;6.27;5.87;;;;;;;;;;5065071;28;20955;-51
2023/06/21 12:27:55;;;;;;;5.77;5.33;;;;;;;;;;5054829;28;20500;-51
2023/06/21 12:30:21;;;;;;;12.53;6.27;;;;;;;;;;5051705;28;20479;-51
2023/06/21 12:32:49;;;;;;;8.50;5.80;;;;;;;;;;5053721;28;20773;-51
2023/06/21 12:35:17;;;;;;;6.37;5.87;;;;;;;;;;5054074;28;20414;-52
2023/06/21 12:37:45;;;;;;;11.43;5.50;;;;;;;;;;5050823;28;20409;-51
2023/06/21 12:40:12;;;;;;;6.20;5.80;;;;;;;;;;5052197;28;20483;-52
2023/06/21 12:42:38;;;;;;;5.53;5.13;;;;;;;;;;5049098;28;20401;-51
2023/06/21 12:45:05;;;;;;;6.37;5.73;;;;;;;;;;5048636;28;20406;-51
2023/06/21 12:47:32;;;;;;;9.97;6.03;;;;;;;;;;5059777;28;20428;-51
2023/06/21 12:49:59;;;;;;;6.27;5.80;;;;;;;;;;5050661;28;20464;-53
2023/06/21 12:52:27;;;;;;;6.43;5.87;;;;;;;;;;5051307;28;20459;-51
2023/06/21 12:54:54;;;;;;;6.40;5.80;;;;;;;;;;5053923;28;20492;-51
2023/06/21 12:57:25;;;;;;;6.13;5.63;;;;;;;;;;5053121;28;20708;-52
2023/06/21 12:59:51;;;;;;;6.17;5.50;;;;;;;;;;5037507;28;20870;-51
2023/06/21 13:02:17;;;;;;;5.33;5.00;;;;;;;;;;5049803;28;20401;-53
2023/06/21 13:04:46;;;;;;;4.73;4.23;;;;;;;;;;5051618;28;20402;-52
2023/06/21 13:07:12;;;;;;;6.13;5.53;;;;;;;;;;5043918;28;20409;-52
2023/06/21 13:09:39;;;;;;;4.30;4.10;;;;;;;;;;5053088;28;20452;-51
2023/06/21 13:12:05;;;;;;;5.23;4.73;;;;;;;;;;5060500;28;20429;-50
2023/06/21 13:14:31;;;;;;;8.20;4.87;;;;;;;;;;5051899;28;20424;-50
2023/06/21 13:16:57;;;;;;;5.70;4.33;;;;;;;;;;5051014;28;20408;-51
2023/06/21 13:19:25;;;;;;;4.87;4.47;;;;;;;;;;5060926;28;20402;-51
2023/06/21 13:21:51;;;;;;;4.40;4.10;;;;;;;;;;5046393;28;20195;-52
2023/06/21 13:24:17;;;;;;;5.30;4.80;;;;;;;;;;5043802;28;20405;-53
2023/06/21 13:26:44;;;;;;;5.10;4.63;;;;;;;;;;5053006;28;20439;-51
2023/06/21 13:29:10;;;;;;;5.80;5.30;;;;;;;;;;5049725;28;20418;-51
2023/06/21 13:31:36;;;;;;;6.80;4.70;;;;;;;;;;5049654;28;20434;-51
2023/06/21 13:34:02;;;;;;;5.00;4.10;;;;;;;;;;5050071;28;20414;-51
2023/06/21 13:36:28;;;;;;;5.50;4.20;;;;;;;;;;5050657;28;20420;-51
2023/06/21 13:38:54;;;;;;;7.70;4.97;;;;;;;;;;5047953;28;20417;-51
2023/06/21 13:41:20;;;;;;;5.03;4.70;;;;;;;;;;5044539;28;20481;-51
2023/06/21 13:43:47;;;;;;;5.73;5.00;;;;;;;;;;5053710;28;20202;-51
2023/06/21 13:46:13;;;;;;;5.10;4.70;;;;;;;;;;5057401;28;20459;-51
2023/06/21 13:48:39;;;;;;;5.10;4.70;;;;;;;;;;5050481;28;20457;-51
2023/06/21 13:51:05;;;;;;;4.73;4.43;;;;;;;;;;5053114;28;20449;-52
2023/06/21 13:53:31;;;;;;;5.87;5.00;;;;;;;;;;5052624;28;20952;-52
2023/06/21 13:55:57;;;;;;;6.47;5.87;;;;;;;;;;5052537;28;20663;-53
2023/06/21 13:58:25;;;;;;;5.63;5.13;;;;;;;;;;5052357;28;20424;-52
2023/06/21 14:00:51;;;;;;;4.80;4.40;;;;;;;;;;5052012;28;20566;-52
2023/06/21 14:03:17;;;;;;;5.73;5.10;;;;;;;;;;5052269;28;20413;-52
2023/06/21 14:05:43;;;;;;;5.80;5.40;;;;;;;;;;5049553;28;20416;-51
2023/06/21 14:08:09;;;;;;;5.40;4.90;;;;;;;;;;5052558;28;20929;-51
2023/06/21 14:10:35;;;;;;;5.17;4.67;;;;;;;;;;5051943;28;20840;-51
2023/06/21 14:13:01;;;;;;;5.23;4.90;;;;;;;;;;5052079;28;20432;-52
2023/06/21 14:15:27;;;;;;;4.60;4.30;;;;;;;;;;5052083;28;20421;-52
2023/06/21 14:17:54;;;;;;;5.50;5.00;;;;;;;;;;5052088;28;20910;-51
2023/06/21 14:20:22;;;;;;;9.20;5.00;;;;;;;;;;5051749;28;20465;-51
2023/06/21 14:22:48;;;;;;;5.00;4.60;;;;;;;;;;5051038;28;20429;-52
2023/06/21 14:25:14;;;;;;;5.63;5.13;;;;;;;;;;5052049;28;20417;-51
2023/06/21 14:27:40;;;;;;;5.63;5.13;;;;;;;;;;5051623;28;20417;-52
2023/06/21 14:30:06;;;;;;;5.60;5.10;;;;;;;;;;5051353;28;20449;-51
2023/06/21 14:32:32;;;;;;;5.07;4.70;;;;;;;;;;5051868;28;20401;-52
2023/06/21 14:34:58;;;;;;;5.67;5.23;;;;;;;;;;5056581;28;20507;-52
2023/06/21 14:37:25;;;;;;;7.20;5.40;;;;;;;;;;5043114;28;20435;-52